Time;durP1;ratioP1;P1;durP2;ratioP2;P2;SDS_P1;SDS_P2;PMS_P1;PMS_P2;Temp;Humidity;BMP_temperature;BMP_pressure;BME280_temperature;BME280_humidity;BME280_pressure;Samples;Min_cycle;Max_cycle;Signal;HPM_P1;HPM_P2
2021/10/21 00:02:16;;;;;;;14.60;6.95;;;;;;;;;;8239566;28;20364;-75
2021/10/21 00:06:21;;;;;;;13.80;7.25;;;;;;;;;;8229752;28;20333;-74
2021/10/21 00:10:26;;;;;;;13.73;7.15;;;;;;;;;;8223361;28;20479;-74
2021/10/21 00:14:32;;;;;;;15.68;7.30;;;;;;;;;;8223966;28;20356;-73
2021/10/21 00:18:38;;;;;;;18.25;6.88;;;;;;;;;;8225109;28;20461;-72
2021/10/21 00:22:44;;;;;;;25.48;11.13;;;;;;;;;;8223171;28;20465;-75
2021/10/21 00:26:49;;;;;;;23.30;10.80;;;;;;;;;;8238638;28;20064;-73
2021/10/21 00:30:54;;;;;;;19.58;8.98;;;;;;;;;;8223895;28;20064;-73
2021/10/21 00:34:59;;;;;;;19.02;9.20;;;;;;;;;;8223329;28;20049;-74
2021/10/21 00:39:05;;;;;;;15.55;8.38;;;;;;;;;;8222177;28;20468;-74
2021/10/21 00:43:10;;;;;;;20.67;7.78;;;;;;;;;;8223957;28;20479;-73
2021/10/21 00:47:16;;;;;;;14.63;6.97;;;;;;;;;;8224356;28;20049;-75
2021/10/21 00:51:21;;;;;;;16.05;7.20;;;;;;;;;;8224032;28;20483;-73
2021/10/21 00:55:27;;;;;;;15.75;6.95;;;;;;;;;;8224740;28;20372;-73
2021/10/21 00:59:33;;;;;;;16.30;6.88;;;;;;;;;;8225658;28;20045;-75
2021/10/21 01:03:38;;;;;;;15.18;6.15;;;;;;;;;;8229887;28;20413;-74
2021/10/21 01:07:44;;;;;;;18.17;7.55;;;;;;;;;;8228178;28;20465;-73
2021/10/21 01:11:51;;;;;;;21.77;7.22;;;;;;;;;;8232206;28;20353;-72
2021/10/21 01:16:05;;;;;;;13.50;6.45;;;;;;;;;;8212914;28;20377;-73
2021/10/21 01:20:12;;;;;;;19.35;6.75;;;;;;;;;;8244722;28;20360;-73
2021/10/21 01:24:18;;;;;;;13.07;6.28;;;;;;;;;;8261585;28;20075;-73
2021/10/21 01:28:24;;;;;;;10.35;5.20;;;;;;;;;;8261504;28;20071;-73
2021/10/21 01:32:34;;;;;;;14.02;4.85;;;;;;;;;;8260448;28;20075;-74
2021/10/21 01:36:43;;;;;;;7.50;4.72;;;;;;;;;;8261644;28;20348;-72
2021/10/21 01:40:48;;;;;;;12.23;5.72;;;;;;;;;;8244319;28;20486;-73
2021/10/21 01:44:53;;;;;;;9.90;5.20;;;;;;;;;;8242703;28;20357;-74
2021/10/21 01:48:58;;;;;;;13.27;5.20;;;;;;;;;;8262156;28;20045;-74
2021/10/21 01:53:04;;;;;;;9.48;4.75;;;;;;;;;;8228427;28;20474;-74
2021/10/21 01:57:09;;;;;;;19.65;5.25;;;;;;;;;;8260581;28;20353;-74
2021/10/21 02:01:15;;;;;;;11.95;5.88;;;;;;;;;;8259965;28;20452;-74
2021/10/21 02:05:22;;;;;;;9.93;5.28;;;;;;;;;;8259383;28;20365;-74
2021/10/21 02:09:27;;;;;;;11.90;5.60;;;;;;;;;;8243077;28;20467;-74
2021/10/21 02:13:32;;;;;;;16.20;6.78;;;;;;;;;;8224956;28;20484;-74
2021/10/21 02:17:37;;;;;;;14.85;5.28;;;;;;;;;;8229431;28;20064;-73
2021/10/21 02:21:42;;;;;;;11.48;5.90;;;;;;;;;;8227339;28;20467;-72
2021/10/21 02:25:47;;;;;;;11.20;5.60;;;;;;;;;;8229954;28;20433;-73
2021/10/21 02:29:52;;;;;;;9.82;4.93;;;;;;;;;;8227163;28;20476;-73
2021/10/21 02:33:57;;;;;;;18.73;5.38;;;;;;;;;;8228585;28;20372;-74
2021/10/21 02:38:03;;;;;;;10.57;5.53;;;;;;;;;;8227398;28;20049;-73
2021/10/21 02:42:08;;;;;;;18.70;6.68;;;;;;;;;;8229205;28;20621;-73
2021/10/21 02:46:14;;;;;;;16.23;6.10;;;;;;;;;;8225719;28;20473;-74
2021/10/21 02:50:19;;;;;;;17.60;6.25;;;;;;;;;;8226288;28;20049;-74
2021/10/21 02:54:26;;;;;;;13.75;5.93;;;;;;;;;;8226306;28;20356;-74
2021/10/21 02:58:31;;;;;;;10.73;5.57;;;;;;;;;;8224878;28;20594;-72
2021/10/21 03:02:39;;;;;;;9.48;5.13;;;;;;;;;;8224772;28;20361;-74
2021/10/21 03:06:44;;;;;;;16.65;5.72;;;;;;;;;;8225286;28;20440;-73
2021/10/21 03:10:49;;;;;;;16.13;6.80;;;;;;;;;;8224260;28;20476;-73
2021/10/21 03:14:55;;;;;;;19.63;7.15;;;;;;;;;;8254593;28;20464;-73
2021/10/21 03:19:00;;;;;;;23.70;7.43;;;;;;;;;;8240054;28;20402;-73
2021/10/21 03:23:06;;;;;;;19.65;7.95;;;;;;;;;;8239692;28;20071;-73
2021/10/21 03:27:11;;;;;;;14.38;6.53;;;;;;;;;;8259561;28;20351;-74
2021/10/21 03:31:17;;;;;;;16.90;7.25;;;;;;;;;;8241242;28;20053;-75
2021/10/21 03:35:22;;;;;;;13.85;6.10;;;;;;;;;;8257422;28;20053;-73
2021/10/21 03:39:27;;;;;;;13.23;6.35;;;;;;;;;;8257515;28;20463;-73
2021/10/21 03:43:32;;;;;;;10.50;5.57;;;;;;;;;;8256996;28;20084;-73
2021/10/21 03:47:38;;;;;;;14.00;6.50;;;;;;;;;;8256893;28;20476;-74
2021/10/21 03:51:43;;;;;;;13.40;5.57;;;;;;;;;;8241172;28;20446;-75
2021/10/21 03:55:48;;;;;;;21.27;5.63;;;;;;;;;;8257049;28;20368;-73
2021/10/21 03:59:53;;;;;;;12.95;6.35;;;;;;;;;;8257448;28;20345;-73
2021/10/21 04:03:58;;;;;;;14.07;5.95;;;;;;;;;;8241143;28;20356;-73
2021/10/21 04:08:03;;;;;;;13.77;5.65;;;;;;;;;;8258920;28;20451;-73
2021/10/21 04:12:08;;;;;;;14.27;6.25;;;;;;;;;;8239307;28;20499;-74
2021/10/21 04:16:13;;;;;;;13.70;6.47;;;;;;;;;;8239543;28;20472;-75
2021/10/21 04:20:19;;;;;;;13.27;5.80;;;;;;;;;;8239991;28;20380;-74
2021/10/21 04:24:25;;;;;;;17.35;6.05;;;;;;;;;;8239646;28;20460;-74
2021/10/21 04:28:31;;;;;;;15.70;6.43;;;;;;;;;;8256783;28;20359;-74
2021/10/21 04:32:36;;;;;;;13.75;5.95;;;;;;;;;;8257204;28;20321;-75
2021/10/21 04:36:41;;;;;;;16.13;5.88;;;;;;;;;;8246020;28;20348;-73
2021/10/21 04:40:46;;;;;;;16.40;5.45;;;;;;;;;;8263698;28;20495;-73
2021/10/21 04:44:52;;;;;;;16.50;6.75;;;;;;;;;;8262394;28;20130;-74
2021/10/21 04:48:57;;;;;;;12.00;6.10;;;;;;;;;;8262335;28;20403;-74
2021/10/21 04:53:02;;;;;;;13.43;6.20;;;;;;;;;;8245715;28;20064;-73
2021/10/21 04:57:07;;;;;;;17.40;5.78;;;;;;;;;;8261983;28;20344;-74
2021/10/21 05:01:12;;;;;;;12.65;6.18;;;;;;;;;;8245064;28;20032;-74
2021/10/21 05:05:18;;;;;;;10.60;5.57;;;;;;;;;;8262426;28;20384;-73
2021/10/21 05:09:23;;;;;;;8.27;5.13;;;;;;;;;;8261996;28;20063;-75
2021/10/21 05:13:28;;;;;;;12.13;6.03;;;;;;;;;;8227738;28;20408;-74
2021/10/21 05:17:33;;;;;;;10.35;6.40;;;;;;;;;;8229226;28;20069;-74
2021/10/21 05:21:38;;;;;;;12.70;6.05;;;;;;;;;;8227593;28;20487;-73
2021/10/21 05:25:44;;;;;;;11.18;5.25;;;;;;;;;;8229205;28;20383;-73
2021/10/21 05:29:49;;;;;;;10.85;5.75;;;;;;;;;;8227147;28;20471;-73
2021/10/21 05:33:54;;;;;;;12.55;6.40;;;;;;;;;;8211274;28;20042;-73
2021/10/21 05:37:59;;;;;;;15.25;6.50;;;;;;;;;;8228808;28;20060;-73
2021/10/21 05:42:04;;;;;;;17.13;6.72;;;;;;;;;;8227207;28;20349;-73
2021/10/21 05:46:10;;;;;;;21.48;7.20;;;;;;;;;;8226041;28;20037;-74
2021/10/21 05:50:15;;;;;;;11.00;6.45;;;;;;;;;;8226313;28;20364;-73
2021/10/21 05:54:21;;;;;;;13.38;6.72;;;;;;;;;;8226465;28;20484;-73
2021/10/21 05:58:26;;;;;;;16.77;6.65;;;;;;;;;;8228149;28;20045;-74
2021/10/21 06:02:31;;;;;;;12.57;6.00;;;;;;;;;;8228886;28;20460;-74
2021/10/21 06:06:37;;;;;;;12.43;6.43;;;;;;;;;;8212284;28;20049;-74
2021/10/21 06:10:42;;;;;;;13.63;6.90;;;;;;;;;;8228476;28;20381;-74
2021/10/21 06:14:48;;;;;;;13.32;6.47;;;;;;;;;;8226236;28;20053;-73
2021/10/21 06:18:53;;;;;;;11.32;6.15;;;;;;;;;;8226542;28;20483;-74
2021/10/21 06:22:58;;;;;;;16.52;6.63;;;;;;;;;;8226380;28;20361;-73
2021/10/21 06:27:04;;;;;;;12.02;5.72;;;;;;;;;;8227192;28;20068;-74
2021/10/21 06:31:12;;;;;;;12.13;6.30;;;;;;;;;;8228335;28;20563;-73
2021/10/21 06:35:17;;;;;;;9.95;5.38;;;;;;;;;;8226195;28;20475;-75
2021/10/21 06:39:23;;;;;;;12.65;6.50;;;;;;;;;;8225060;28;20460;-73
2021/10/21 06:43:28;;;;;;;16.05;6.40;;;;;;;;;;8229588;28;20479;-74
2021/10/21 06:47:34;;;;;;;14.23;6.97;;;;;;;;;;8225430;28;20455;-74
2021/10/21 06:51:39;;;;;;;8.38;5.22;;;;;;;;;;8210264;28;20042;-74
2021/10/21 06:55:44;;;;;;;15.20;5.13;;;;;;;;;;8226808;28;20042;-75
2021/10/21 06:59:50;;;;;;;30.05;10.48;;;;;;;;;;8225413;28;20049;-73
2021/10/21 07:03:55;;;;;;;16.00;6.57;;;;;;;;;;8226357;28;20072;-73
2021/10/21 07:08:00;;;;;;;9.48;4.82;;;;;;;;;;8225968;28;20046;-73
2021/10/21 07:12:06;;;;;;;9.05;4.65;;;;;;;;;;8231207;28;20472;-74
2021/10/21 07:16:11;;;;;;;9.25;4.28;;;;;;;;;;8242233;28;20372;-73
2021/10/21 07:20:18;;;;;;;17.80;5.40;;;;;;;;;;8224883;28;20399;-74
2021/10/21 07:24:21;;;;;;;13.07;6.00;;;;;;;;;;8240511;28;20400;-73
2021/10/21 07:28:27;;;;;;;10.20;5.75;;;;;;;;;;8259037;28;20360;-73
2021/10/21 07:32:32;;;;;;;10.63;5.78;;;;;;;;;;8258298;28;20044;-75
2021/10/21 07:36:37;;;;;;;10.23;5.97;;;;;;;;;;8239648;28;20045;-74
2021/10/21 07:40:42;;;;;;;16.83;6.45;;;;;;;;;;8240704;28;20125;-73
2021/10/21 07:44:49;;;;;;;11.38;5.68;;;;;;;;;;8241424;28;20368;-74
2021/10/21 07:48:54;;;;;;;10.82;5.25;;;;;;;;;;8257957;28;20500;-75
2021/10/21 07:53:00;;;;;;;7.80;4.57;;;;;;;;;;8240554;28;20405;-75
2021/10/21 07:57:06;;;;;;;7.95;4.53;;;;;;;;;;8257782;28;20348;-75
2021/10/21 08:01:11;;;;;;;8.82;5.05;;;;;;;;;;8240406;28;20483;-75
2021/10/21 08:05:17;;;;;;;9.45;5.40;;;;;;;;;;8258558;28;20525;-75
2021/10/21 08:09:28;;;;;;;10.70;5.25;;;;;;;;;;8260723;28;20492;-74
2021/10/21 08:13:33;;;;;;;9.25;5.65;;;;;;;;;;8264593;28;20488;-74
2021/10/21 08:17:39;;;;;;;8.98;5.22;;;;;;;;;;8265509;28;20494;-74
2021/10/21 08:21:47;;;;;;;9.37;5.10;;;;;;;;;;8244796;28;20353;-74
2021/10/21 08:25:52;;;;;;;9.25;5.60;;;;;;;;;;8199027;28;20058;-73
2021/10/21 08:29:57;;;;;;;11.40;5.45;;;;;;;;;;8246915;28;20456;-73
2021/10/21 08:34:03;;;;;;;9.48;5.70;;;;;;;;;;8202527;28;20463;-73
2021/10/21 08:38:09;;;;;;;10.07;5.95;;;;;;;;;;8227948;28;20071;-74
2021/10/21 08:42:16;;;;;;;14.07;6.85;;;;;;;;;;8230859;28;20041;-73
2021/10/21 08:46:26;;;;;;;9.48;6.53;;;;;;;;;;8231247;28;20465;-73
2021/10/21 08:50:34;;;;;;;14.52;6.10;;;;;;;;;;8230552;28;20059;-73
2021/10/21 08:54:39;;;;;;;11.87;6.17;;;;;;;;;;8230981;28;20049;-73
2021/10/21 08:58:44;;;;;;;10.13;6.45;;;;;;;;;;8231713;28;20781;-73
2021/10/21 09:02:52;;;;;;;10.63;6.28;;;;;;;;;;8228858;28;20364;-74
2021/10/21 09:11:24;;;;;;;10.75;6.38;;;;;;;;;;8197865;28;20456;-75
2021/10/21 09:15:29;;;;;;;14.52;6.97;;;;;;;;;;8199668;28;20362;-75
2021/10/21 09:19:35;;;;;;;14.07;6.38;;;;;;;;;;8179609;28;20381;-74
2021/10/21 09:23:42;;;;;;;10.63;6.72;;;;;;;;;;8180641;28;20395;-73
2021/10/21 09:27:48;;;;;;;12.68;6.97;;;;;;;;;;8196578;28;20353;-72
2021/10/21 09:32:12;;;;;;;13.88;6.80;;;;;;;;;;8197975;28;20378;-73
2021/10/21 09:36:22;;;;;;;13.43;6.43;;;;;;;;;;8198182;28;20356;-74
2021/10/21 09:40:35;;;;;;;12.40;6.68;;;;;;;;;;8195524;28;20487;-75
2021/10/21 09:44:41;;;;;;;10.65;5.85;;;;;;;;;;8196476;28;20409;-73
2021/10/21 09:48:46;;;;;;;10.27;6.43;;;;;;;;;;8197257;28;20046;-73
2021/10/21 09:53:19;;;;;;;12.10;7.03;;;;;;;;;;8197545;28;20472;-73
2021/10/21 09:57:29;;;;;;;11.45;6.82;;;;;;;;;;8194797;28;20469;-74
2021/10/21 10:01:39;;;;;;;11.10;6.72;;;;;;;;;;8195502;28;20054;-74
2021/10/21 10:05:47;;;;;;;12.20;6.38;;;;;;;;;;8195863;28;20400;-73
2021/10/21 10:09:58;;;;;;;15.05;7.97;;;;;;;;;;8195835;28;20461;-76
2021/10/21 10:14:05;;;;;;;13.82;7.82;;;;;;;;;;8217694;28;20471;-73
2021/10/21 10:18:22;;;;;;;17.23;8.15;;;;;;;;;;8227893;28;20053;-75
2021/10/21 10:22:40;;;;;;;14.90;9.43;;;;;;;;;;8227053;28;20176;-72
2021/10/21 10:26:55;;;;;;;16.92;9.18;;;;;;;;;;8210952;28;20361;-72
2021/10/21 10:31:01;;;;;;;19.42;9.02;;;;;;;;;;8225811;28;20041;-74
2021/10/21 10:35:13;;;;;;;26.73;9.13;;;;;;;;;;8209576;28;20383;-75
2021/10/21 10:39:52;;;;;;;18.88;8.02;;;;;;;;;;8227969;28;20445;-73
2021/10/21 10:43:57;;;;;;;19.60;8.35;;;;;;;;;;8227552;28;20480;-73
2021/10/21 10:48:02;;;;;;;15.75;9.02;;;;;;;;;;8226533;28;20330;-75
2021/10/21 10:52:17;;;;;;;13.73;8.15;;;;;;;;;;8227145;28;20465;-75
2021/10/21 10:56:42;;;;;;;27.17;9.48;;;;;;;;;;8225191;28;20342;-74
2021/10/21 11:00:52;;;;;;;34.10;17.67;;;;;;;;;;8224911;28;20068;-74
2021/10/21 11:05:03;;;;;;;22.85;9.90;;;;;;;;;;8227160;28;20071;-75
2021/10/21 11:09:08;;;;;;;15.65;8.02;;;;;;;;;;8225215;28;20046;-74
2021/10/21 11:13:27;;;;;;;15.73;8.73;;;;;;;;;;8223438;28;20514;-73
2021/10/21 11:17:43;;;;;;;14.25;7.70;;;;;;;;;;8225456;28;20472;-74
2021/10/21 11:21:55;;;;;;;13.68;7.07;;;;;;;;;;8226295;28;20453;-73
2021/10/21 11:26:02;;;;;;;11.95;6.22;;;;;;;;;;8225961;28;20480;-75
2021/10/21 11:30:15;;;;;;;16.55;6.07;;;;;;;;;;8224133;28;20471;-72
2021/10/21 11:34:41;;;;;;;12.50;5.38;;;;;;;;;;8225380;28;20041;-73
2021/10/21 11:39:06;;;;;;;12.15;4.82;;;;;;;;;;8223991;28;20358;-74
2021/10/21 11:43:38;;;;;;;10.95;4.35;;;;;;;;;;8225190;28;20315;-74
2021/10/21 11:47:43;;;;;;;14.38;5.53;;;;;;;;;;8216102;28;20408;-74
2021/10/21 11:51:48;;;;;;;11.57;4.45;;;;;;;;;;8224411;28;20477;-73
2021/10/21 11:55:55;;;;;;;19.40;6.22;;;;;;;;;;8224035;28;20092;-74
2021/10/21 12:00:01;;;;;;;20.52;4.60;;;;;;;;;;8224496;28;20049;-73
2021/10/21 12:04:06;;;;;;;43.38;4.88;;;;;;;;;;8226195;28;20471;-72
2021/10/21 12:08:21;;;;;;;49.47;9.40;;;;;;;;;;8224255;28;20368;-73
2021/10/21 12:12:40;;;;;;;53.58;7.03;;;;;;;;;;8222809;28;20572;-73
2021/10/21 12:16:45;;;;;;;56.50;6.15;;;;;;;;;;8223226;28;20045;-74
2021/10/21 12:20:52;;;;;;;22.77;6.68;;;;;;;;;;8223564;28;20049;-72
2021/10/21 12:24:57;;;;;;;9.02;3.40;;;;;;;;;;8206343;28;20461;-74
2021/10/21 12:29:11;;;;;;;6.43;3.28;;;;;;;;;;8225880;28;20464;-73
2021/10/21 12:33:19;;;;;;;10.82;3.97;;;;;;;;;;8223442;28;20464;-75
2021/10/21 12:37:27;;;;;;;4.80;3.40;;;;;;;;;;8207979;28;20479;-73
2021/10/21 12:41:53;;;;;;;11.27;5.70;;;;;;;;;;8223087;28;20063;-73
2021/10/21 12:46:01;;;;;;;16.67;5.88;;;;;;;;;;8212553;28;20411;-73
2021/10/21 12:50:15;;;;;;;17.00;9.00;;;;;;;;;;8222053;28;20457;-73
2021/10/21 12:54:29;;;;;;;24.48;9.00;;;;;;;;;;8223289;28;20449;-73
2021/10/21 12:58:34;;;;;;;17.75;6.75;;;;;;;;;;8212915;28;20063;-73
2021/10/21 13:02:39;;;;;;;20.15;6.47;;;;;;;;;;8246656;28;20460;-72
2021/10/21 13:06:45;;;;;;;55.63;17.27;;;;;;;;;;8230242;28;20468;-73
2021/10/21 13:10:55;;;;;;;27.90;6.97;;;;;;;;;;8229901;28;20453;-73
2021/10/21 13:15:00;;;;;;;25.15;4.88;;;;;;;;;;8227630;28;20353;-73
2021/10/21 13:19:08;;;;;;;32.30;7.32;;;;;;;;;;8228756;28;20361;-73
2021/10/21 13:23:13;;;;;;;69.45;7.43;;;;;;;;;;8227761;28;20336;-74
2021/10/21 13:27:18;;;;;;;93.28;10.18;;;;;;;;;;8227517;28;20042;-72
2021/10/21 13:31:24;;;;;;;15.77;6.15;;;;;;;;;;8227995;28;20464;-74
2021/10/21 13:35:29;;;;;;;12.63;4.07;;;;;;;;;;8230686;28;20480;-73
2021/10/21 13:39:39;;;;;;;18.77;3.90;;;;;;;;;;8228375;28;20448;-75
2021/10/21 13:43:45;;;;;;;18.30;4.65;;;;;;;;;;8228548;28;20412;-73
2021/10/21 13:47:50;;;;;;;17.50;5.10;;;;;;;;;;8229565;28;20352;-73
2021/10/21 13:51:55;;;;;;;8.30;3.88;;;;;;;;;;8228425;28;20334;-73
2021/10/21 13:56:03;;;;;;;12.52;3.75;;;;;;;;;;8211220;28;20060;-72
2021/10/21 14:00:09;;;;;;;20.33;6.30;;;;;;;;;;8113188;28;20491;-73
2021/10/21 14:04:14;;;;;;;22.60;3.42;;;;;;;;;;8240718;28;20476;-74
2021/10/21 14:08:19;;;;;;;10.60;3.08;;;;;;;;;;8225301;28;20460;-74
2021/10/21 14:12:26;;;;;;;14.05;5.95;;;;;;;;;;8227943;28;20053;-76
2021/10/21 14:16:34;;;;;;;13.38;5.13;;;;;;;;;;8226649;28;20357;-74
2021/10/21 14:20:39;;;;;;;9.27;3.57;;;;;;;;;;8228126;28;20049;-76
2021/10/21 14:24:44;;;;;;;11.55;3.47;;;;;;;;;;8225619;28;20448;-75
2021/10/21 14:28:50;;;;;;;10.30;4.60;;;;;;;;;;8227209;28;20575;-73
2021/10/21 14:32:55;;;;;;;8.80;3.67;;;;;;;;;;8226579;28;20072;-74
2021/10/21 14:37:00;;;;;;;23.42;5.43;;;;;;;;;;8227040;28;20050;-72
2021/10/21 14:41:06;;;;;;;19.70;4.22;;;;;;;;;;8225969;28;20440;-74
2021/10/21 14:45:13;;;;;;;9.23;4.45;;;;;;;;;;8226437;28;20372;-73
2021/10/21 14:49:18;;;;;;;8.23;3.97;;;;;;;;;;8225986;28;20397;-73
2021/10/21 14:53:23;;;;;;;6.82;3.28;;;;;;;;;;8225909;28;20449;-72
2021/10/21 14:57:29;;;;;;;11.82;5.15;;;;;;;;;;8227383;28;20376;-75
2021/10/21 15:01:35;;;;;;;7.00;3.33;;;;;;;;;;8224492;28;20068;-74
2021/10/21 15:05:47;;;;;;;8.38;4.43;;;;;;;;;;8225698;28;20461;-72
2021/10/21 15:23:04;;;;;;;12.45;4.78;;;;;;;;;;8223732;28;20514;-74
2021/10/21 15:27:09;;;;;;;23.20;3.60;;;;;;;;;;8228199;28;20485;-74
2021/10/21 15:31:17;;;;;;;13.57;3.90;;;;;;;;;;8224347;28;20468;-74
2021/10/21 15:35:23;;;;;;;13.38;3.88;;;;;;;;;;8224192;28;20053;-75
2021/10/21 15:39:35;;;;;;;13.13;3.05;;;;;;;;;;8224269;28;20468;-73
2021/10/21 15:43:43;;;;;;;10.90;3.17;;;;;;;;;;8224441;28;20456;-75
2021/10/21 15:47:51;;;;;;;11.65;4.47;;;;;;;;;;8223622;28;20460;-74
2021/10/21 16:13:56;;;;;;;10.32;4.10;;;;;;;;;;8223267;28;20068;-73
2021/10/21 16:18:06;;;;;;;12.73;3.33;;;;;;;;;;8224550;28;20404;-74
2021/10/21 16:22:25;;;;;;;10.55;4.18;;;;;;;;;;8223910;28;20468;-73
2021/10/21 16:26:32;;;;;;;7.75;3.08;;;;;;;;;;8222954;28;20045;-74
2021/10/21 16:30:37;;;;;;;7.97;1.80;;;;;;;;;;8226587;28;20063;-75
2021/10/21 16:34:43;;;;;;;9.10;4.28;;;;;;;;;;8230410;28;20471;-73
2021/10/21 16:38:49;;;;;;;12.00;3.90;;;;;;;;;;8229941;28;20071;-75
2021/10/21 16:42:55;;;;;;;10.70;4.75;;;;;;;;;;8229661;28;20049;-74
2021/10/21 16:47:00;;;;;;;8.85;4.38;;;;;;;;;;8228700;28;20464;-74
2021/10/21 16:51:05;;;;;;;11.55;5.50;;;;;;;;;;8228398;28;20079;-73
2021/10/21 16:55:11;;;;;;;35.28;15.38;;;;;;;;;;8230802;28;20369;-73
2021/10/21 16:59:17;;;;;;;21.35;6.45;;;;;;;;;;8229387;28;20491;-74
2021/10/21 17:03:22;;;;;;;22.20;7.72;;;;;;;;;;8230198;28;20049;-74
2021/10/21 17:07:27;;;;;;;12.73;5.55;;;;;;;;;;8229792;28;20466;-73
2021/10/21 17:11:33;;;;;;;20.42;3.40;;;;;;;;;;8228817;28;20075;-73
2021/10/21 17:15:37;;;;;;;11.60;3.33;;;;;;;;;;8231490;28;20107;-73
2021/10/21 17:19:44;;;;;;;33.88;5.55;;;;;;;;;;8229525;28;20372;-72
2021/10/21 17:23:49;;;;;;;6.15;2.63;;;;;;;;;;8229086;28;20079;-75
2021/10/21 17:27:54;;;;;;;6.57;2.65;;;;;;;;;;8228422;28;20380;-73
2021/10/21 17:32:00;;;;;;;12.57;3.15;;;;;;;;;;8228857;28;20464;-72
2021/10/21 17:36:05;;;;;;;19.83;4.13;;;;;;;;;;8230402;28;20391;-73
2021/10/21 17:40:13;;;;;;;9.82;3.25;;;;;;;;;;8227047;28;20473;-73
2021/10/21 17:44:19;;;;;;;14.17;6.27;;;;;;;;;;8227949;28;20500;-73
2021/10/21 17:48:24;;;;;;;18.75;6.10;;;;;;;;;;8227903;28;20403;-74
2021/10/21 17:52:32;;;;;;;14.88;5.40;;;;;;;;;;8197584;28;20372;-73
2021/10/21 17:56:37;;;;;;;19.70;5.00;;;;;;;;;;8243418;28;20469;-73
2021/10/21 18:00:44;;;;;;;17.30;5.30;;;;;;;;;;8230515;28;20457;-73
2021/10/21 18:04:49;;;;;;;12.30;4.07;;;;;;;;;;8226562;28;20071;-73
2021/10/21 18:08:54;;;;;;;12.85;3.00;;;;;;;;;;8227645;28;20048;-73
2021/10/21 18:13:01;;;;;;;15.68;3.22;;;;;;;;;;8226791;28;20080;-73
2021/10/21 18:17:07;;;;;;;8.65;3.05;;;;;;;;;;8225744;28;20042;-74
2021/10/21 18:21:13;;;;;;;10.35;2.95;;;;;;;;;;8227815;28;20485;-72
2021/10/21 18:25:19;;;;;;;10.50;2.40;;;;;;;;;;8210486;28;20404;-72
2021/10/21 18:29:25;;;;;;;10.07;2.55;;;;;;;;;;8226784;28;20045;-73
2021/10/21 18:33:33;;;;;;;6.38;1.63;;;;;;;;;;8225500;28;20444;-73
2021/10/21 18:37:38;;;;;;;4.22;1.70;;;;;;;;;;8225907;28;20045;-74
2021/10/21 18:41:45;;;;;;;6.63;1.58;;;;;;;;;;8225573;28;20384;-72
2021/10/21 18:45:53;;;;;;;5.18;1.90;;;;;;;;;;8225115;28;20037;-74
2021/10/21 18:49:58;;;;;;;11.88;2.40;;;;;;;;;;8226172;28;20352;-73
2021/10/21 18:54:04;;;;;;;6.90;2.05;;;;;;;;;;8227142;28;20467;-74
2021/10/21 18:58:09;;;;;;;5.55;1.70;;;;;;;;;;8224968;28;20467;-74
2021/10/21 19:02:17;;;;;;;10.30;2.75;;;;;;;;;;8226684;28;20053;-74
2021/10/21 19:06:27;;;;;;;7.30;2.20;;;;;;;;;;8224330;28;20334;-73
2021/10/21 19:10:33;;;;;;;3.83;1.67;;;;;;;;;;8225549;28;20373;-73
2021/10/21 19:14:39;;;;;;;2.65;1.17;;;;;;;;;;8224181;28;20546;-73
2021/10/21 19:18:44;;;;;;;5.18;1.25;;;;;;;;;;8223000;28;20104;-73
2021/10/21 19:22:50;;;;;;;2.55;1.10;;;;;;;;;;8226961;28;20392;-73
2021/10/21 19:26:55;;;;;;;2.10;1.05;;;;;;;;;;8229096;28;20352;-75
2021/10/21 19:31:00;;;;;;;3.92;1.70;;;;;;;;;;8225962;28;20122;-74
2021/10/21 19:35:07;;;;;;;9.02;3.05;;;;;;;;;;8225531;28;20479;-74
2021/10/21 19:39:15;;;;;;;14.23;5.10;;;;;;;;;;8225840;28;20033;-74
2021/10/21 19:43:21;;;;;;;14.00;4.60;;;;;;;;;;8224846;28;20488;-74
2021/10/21 19:47:29;;;;;;;14.27;4.43;;;;;;;;;;8225082;28;20469;-75
2021/10/21 19:51:36;;;;;;;14.73;4.80;;;;;;;;;;8223966;28;20472;-74
2021/10/21 19:55:41;;;;;;;20.65;6.70;;;;;;;;;;8224295;28;20429;-74
2021/10/21 19:59:47;;;;;;;11.20;4.13;;;;;;;;;;8224126;28;20365;-75
2021/10/21 20:03:53;;;;;;;10.90;4.03;;;;;;;;;;8225930;28;20356;-74
2021/10/21 20:07:58;;;;;;;18.35;5.60;;;;;;;;;;8231389;28;20045;-73
2021/10/21 20:12:05;;;;;;;15.30;5.15;;;;;;;;;;8230480;28;20076;-73
2021/10/21 20:16:12;;;;;;;17.60;6.97;;;;;;;;;;8229653;28;20356;-73
2021/10/21 20:20:19;;;;;;;17.10;7.05;;;;;;;;;;8230650;28;20423;-73
2021/10/21 20:24:24;;;;;;;15.95;6.28;;;;;;;;;;8230084;28;20380;-74
2021/10/21 20:28:29;;;;;;;20.83;7.93;;;;;;;;;;8233018;28;20076;-74
2021/10/21 20:32:37;;;;;;;13.43;6.30;;;;;;;;;;8228961;28;20041;-73
2021/10/21 20:36:42;;;;;;;10.88;4.10;;;;;;;;;;8230875;28;20355;-74
2021/10/21 20:40:47;;;;;;;14.73;6.47;;;;;;;;;;8232220;28;20352;-75
2021/10/21 20:44:54;;;;;;;15.98;5.85;;;;;;;;;;8229885;28;20491;-75
2021/10/21 20:48:58;;;;;;;9.95;3.90;;;;;;;;;;8229887;28;20423;-74
2021/10/21 20:53:07;;;;;;;9.90;4.38;;;;;;;;;;8230134;28;20403;-74
2021/10/21 20:57:12;;;;;;;7.32;3.53;;;;;;;;;;8230094;28;20467;-75
2021/10/21 21:01:18;;;;;;;16.95;3.85;;;;;;;;;;8232354;28;20038;-74
2021/10/21 21:05:23;;;;;;;13.82;3.17;;;;;;;;;;8231211;28;20331;-74
2021/10/21 21:09:29;;;;;;;9.23;2.78;;;;;;;;;;8228925;28;20041;-75
2021/10/21 21:13:35;;;;;;;6.55;2.95;;;;;;;;;;8228781;28;20461;-73
2021/10/21 21:17:41;;;;;;;10.57;2.80;;;;;;;;;;8230421;28;20364;-75
2021/10/21 21:21:47;;;;;;;4.90;2.25;;;;;;;;;;8228115;28;20102;-73
2021/10/21 21:25:52;;;;;;;4.47;1.85;;;;;;;;;;8227747;28;20354;-75
2021/10/21 21:29:57;;;;;;;5.68;1.95;;;;;;;;;;8228272;28;20333;-73
2021/10/21 21:34:03;;;;;;;3.83;1.70;;;;;;;;;;8231147;28;20477;-73
2021/10/21 21:38:08;;;;;;;6.05;2.08;;;;;;;;;;8228076;28;20064;-74
2021/10/21 21:42:13;;;;;;;9.85;2.30;;;;;;;;;;8226180;28;20077;-74
2021/10/21 21:46:18;;;;;;;6.50;2.30;;;;;;;;;;8227207;28;20460;-73
2021/10/21 21:50:27;;;;;;;5.07;2.10;;;;;;;;;;8228985;28;20049;-75
2021/10/21 21:54:32;;;;;;;;;;;;;;;;;;8228133;28;20476;-74
2021/10/21 21:58:37;;;;;;;8.65;3.03;;;;;;;;;;8210235;28;19947;-74
2021/10/21 22:02:43;;;;;;;8.75;3.00;;;;;;;;;;8228065;28;20045;-75
2021/10/21 22:06:48;;;;;;;19.65;8.48;;;;;;;;;;8228067;28;20071;-75
2021/10/21 22:10:56;;;;;;;14.13;4.00;;;;;;;;;;8242947;28;20487;-73
2021/10/21 22:15:01;;;;;;;12.83;5.13;;;;;;;;;;8224898;28;20384;-74
2021/10/21 22:19:14;;;;;;;19.33;4.85;;;;;;;;;;8230104;28;20747;-75
2021/10/21 22:23:19;;;;;;;7.93;2.92;;;;;;;;;;8226204;28;20483;-74
2021/10/21 22:27:24;;;;;;;5.15;2.30;;;;;;;;;;8225142;28;20484;-75
2021/10/21 22:31:29;;;;;;;4.68;2.38;;;;;;;;;;8226410;28;20064;-75
2021/10/21 22:35:37;;;;;;;7.70;2.90;;;;;;;;;;8227900;28;20491;-74
2021/10/21 22:39:42;;;;;;;10.20;1.65;;;;;;;;;;8226461;28;20451;-73
2021/10/21 22:44:08;;;;;;;4.40;1.58;;;;;;;;;;8241796;28;20372;-75
2021/10/21 22:48:13;;;;;;;1.73;1.10;;;;;;;;;;8227475;28;20468;-73
2021/10/21 22:52:18;;;;;;;4.47;1.20;;;;;;;;;;8242425;28;20396;-73
2021/10/21 22:56:24;;;;;;;3.53;1.63;;;;;;;;;;8226408;28;20460;-74
2021/10/21 23:00:31;;;;;;;4.43;1.42;;;;;;;;;;8225370;28;20376;-76
2021/10/21 23:04:44;;;;;;;5.60;2.35;;;;;;;;;;8226013;28;20415;-74
2021/10/21 23:08:50;;;;;;;2.83;1.08;;;;;;;;;;8224757;28;20395;-74
2021/10/21 23:12:56;;;;;;;2.45;1.10;;;;;;;;;;8225411;28;20495;-74
2021/10/21 23:17:03;;;;;;;7.05;1.55;;;;;;;;;;8227038;28;20350;-75
2021/10/21 23:21:08;;;;;;;5.85;1.60;;;;;;;;;;8224909;28;20473;-74
2021/10/21 23:25:15;;;;;;;3.03;1.00;;;;;;;;;;8225009;28;20467;-73
2021/10/21 23:29:21;;;;;;;8.30;1.42;;;;;;;;;;8224857;28;20745;-74
2021/10/21 23:33:26;;;;;;;4.00;1.33;;;;;;;;;;8224975;28;20381;-74
2021/10/21 23:37:31;;;;;;;4.88;1.45;;;;;;;;;;8224508;28;20345;-73
2021/10/21 23:41:37;;;;;;;7.55;1.30;;;;;;;;;;8225060;28;20465;-73
2021/10/21 23:45:43;;;;;;;2.00;1.10;;;;;;;;;;8224747;28;20456;-74
2021/10/21 23:49:49;;;;;;;3.42;1.25;;;;;;;;;;8224454;28;20361;-74
2021/10/21 23:53:54;;;;;;;3.22;1.00;;;;;;;;;;8223892;28;20477;-74
2021/10/21 23:57:59;;;;;;;1.77;0.90;;;;;;;;;;8225218;28;20156;-74
